Time;durP1;ratioP1;P1;durP2;ratioP2;P2;SDS_P1;SDS_P2;PMS_P1;PMS_P2;Temp;Humidity;BMP_temperature;BMP_pressure;BME280_temperature;BME280_humidity;BME280_pressure;Samples;Min_cycle;Max_cycle;Signal;HPM_P1;HPM_P2
2022/03/27 00:00:40;;;;;;;11.82;5.45;;;6.90;99.90;;;;;;5052952;28;20043;-70
2022/03/27 00:03:06;;;;;;;12.60;5.95;;;6.90;99.90;;;;;;5035927;28;20046;-70
2022/03/27 00:05:32;;;;;;;11.20;5.97;;;6.90;99.90;;;;;;5050232;28;20056;-70
2022/03/27 00:07:59;;;;;;;12.38;5.72;;;6.90;99.90;;;;;;5037563;28;20402;-70
2022/03/27 00:10:25;;;;;;;14.02;6.55;;;6.90;99.90;;;;;;5052798;28;20098;-70
2022/03/27 00:12:51;;;;;;;11.25;5.97;;;6.90;99.90;;;;;;5035917;28;20040;-70
2022/03/27 00:15:17;;;;;;;13.65;5.70;;;6.80;99.90;;;;;;5028322;28;20037;-70
2022/03/27 00:17:43;;;;;;;12.55;5.97;;;6.80;99.90;;;;;;5050120;28;20051;-70
2022/03/27 00:20:09;;;;;;;12.02;6.00;;;6.70;99.90;;;;;;5048220;28;20072;-70
2022/03/27 00:22:39;;;;;;;13.82;6.07;;;6.70;99.90;;;;;;5013922;28;20049;-70
2022/03/27 00:25:06;;;;;;;11.75;6.00;;;6.80;99.90;;;;;;5026901;28;20072;-70
2022/03/27 00:27:33;;;;;;;13.73;6.10;;;6.60;99.90;;;;;;5013244;28;20048;-69
2022/03/27 00:29:59;;;;;;;11.88;5.65;;;6.60;99.90;;;;;;5029484;28;20037;-70
2022/03/27 00:32:25;;;;;;;13.23;6.38;;;6.50;99.90;;;;;;5030705;28;20037;-71
2022/03/27 00:34:53;;;;;;;11.82;6.07;;;6.50;99.90;;;;;;5024024;28;20037;-69
2022/03/27 00:37:19;;;;;;;11.35;5.45;;;7.30;99.90;;;;;;5030252;28;20041;-69
2022/03/27 00:39:46;;;;;;;11.90;5.13;;;6.50;99.90;;;;;;5015053;28;21641;-70
2022/03/27 00:42:12;;;;;;;13.13;5.00;;;6.50;99.90;;;;;;5027719;28;20037;-70
2022/03/27 00:44:38;;;;;;;14.30;5.70;;;6.60;99.90;;;;;;5050598;28;20507;-69
2022/03/27 00:47:06;;;;;;;8.60;4.82;;;6.50;99.90;;;;;;5051813;28;20056;-69
2022/03/27 00:49:35;;;;;;;10.52;5.38;;;6.60;99.90;;;;;;5027411;28;20528;-69
2022/03/27 00:52:02;;;;;;;12.55;5.47;;;6.60;99.90;;;;;;5000340;28;20102;-69
2022/03/27 00:54:29;;;;;;;11.48;5.63;;;6.60;99.90;;;;;;5035237;28;20057;-70
2022/03/27 00:56:54;;;;;;;10.63;5.40;;;6.60;99.90;;;;;;5023921;28;20436;-70
2022/03/27 00:59:20;;;;;;;12.02;5.80;;;6.70;99.90;;;;;;5035677;28;20049;-69
2022/03/27 01:01:46;;;;;;;11.43;5.65;;;6.70;99.90;;;;;;5006049;28;20060;-69
2022/03/27 01:04:13;;;;;;;10.05;5.47;;;6.80;99.90;;;;;;4992989;28;20389;-69
2022/03/27 01:06:44;;;;;;;8.90;4.63;;;6.70;99.90;;;;;;5019130;28;20396;-69
2022/03/27 01:12:18;;;;;;;22.48;10.45;;;6.80;99.90;;;;;;5032132;28;20053;-69
2022/03/27 01:14:44;;;;;;;19.05;9.73;;;6.80;99.90;;;;;;5035851;28;20484;-70
2022/03/27 01:17:16;;;;;;;13.70;7.15;;;6.80;99.90;;;;;;5047863;28;20090;-69
2022/03/27 01:19:50;;;;;;;12.23;6.07;;;6.70;99.90;;;;;;5015692;28;20037;-69
2022/03/27 01:22:17;;;;;;;9.27;5.95;;;6.80;99.90;;;;;;5037797;28;20397;-71
2022/03/27 01:24:44;;;;;;;9.82;5.65;;;6.70;99.90;;;;;;5051622;28;20088;-69
2022/03/27 01:27:10;;;;;;;10.88;5.43;;;6.70;99.90;;;;;;5032586;28;20036;-70
2022/03/27 01:29:36;;;;;;;10.88;4.95;;;6.60;99.90;;;;;;5033389;28;20049;-69
2022/03/27 01:32:04;;;;;;;13.30;5.60;;;6.60;99.90;;;;;;5038216;28;20044;-70
2022/03/27 01:34:31;;;;;;;12.30;5.60;;;6.60;99.90;;;;;;5037206;28;20517;-69
2022/03/27 01:37:08;;;;;;;12.27;6.00;;;6.60;99.90;;;;;;5053076;28;20178;-69
2022/03/27 01:39:34;;;;;;;15.13;6.10;;;6.50;99.90;;;;;;5028652;28;20094;-70
2022/03/27 01:42:00;;;;;;;12.13;6.18;;;6.50;99.90;;;;;;5052165;28;20051;-70
2022/03/27 01:44:26;;;;;;;10.48;5.70;;;6.50;99.90;;;;;;5033839;28;20040;-70
2022/03/27 01:46:52;;;;;;;11.57;6.35;;;6.50;99.90;;;;;;5042718;28;20485;-69
2022/03/27 01:49:22;;;;;;;16.33;6.32;;;6.50;99.90;;;;;;5028198;28;20033;-69
2022/03/27 01:51:48;;;;;;;12.13;6.53;;;6.50;99.90;;;;;;5033861;28;20041;-70
2022/03/27 01:54:14;;;;;;;11.15;6.05;;;6.60;99.90;;;;;;5037600;28;20055;-69
2022/03/27 01:56:41;;;;;;;10.80;5.68;;;6.50;99.90;;;;;;5072337;28;20044;-69
2022/03/27 01:59:08;;;;;;;14.00;5.90;;;6.40;99.90;;;;;;5044527;28;20055;-70
2022/03/27 02:01:36;;;;;;;11.90;6.00;;;6.40;99.90;;;;;;5034026;28;20448;-70
2022/03/27 02:04:03;;;;;;;12.57;5.75;;;6.40;99.90;;;;;;5050804;28;20053;-69
2022/03/27 02:06:30;;;;;;;10.80;5.32;;;6.40;99.90;;;;;;5038238;28;20090;-70
2022/03/27 02:09:01;;;;;;;15.63;6.18;;;6.30;99.90;;;;;;5071124;28;20124;-70
2022/03/27 02:11:27;;;;;;;10.95;5.78;;;6.40;99.90;;;;;;5052514;28;20079;-71
2022/03/27 02:13:53;;;;;;;13.00;5.72;;;6.30;99.90;;;;;;5053895;28;20404;-70
2022/03/27 02:16:19;;;;;;;11.52;5.40;;;6.30;99.90;;;;;;5054617;28;20061;-69
2022/03/27 02:18:45;;;;;;;13.10;5.38;;;6.30;99.90;;;;;;5050763;28;20048;-70
2022/03/27 02:21:11;;;;;;;15.07;5.53;;;6.30;99.90;;;;;;5022901;28;20060;-70
2022/03/27 02:23:38;;;;;;;16.02;5.15;;;6.30;99.90;;;;;;5020353;28;20468;-70
2022/03/27 02:26:05;;;;;;;12.68;4.78;;;6.80;99.90;;;;;;5067627;28;20070;-69
2022/03/27 02:28:31;;;;;;;10.73;4.88;;;6.30;99.90;;;;;;5052592;28;20553;-70
2022/03/27 02:30:57;;;;;;;12.07;5.38;;;6.30;99.90;;;;;;5024217;28;20070;-70
2022/03/27 02:33:24;;;;;;;13.80;5.28;;;6.30;99.90;;;;;;5053444;28;20036;-69
2022/03/27 02:35:50;;;;;;;15.13;5.22;;;6.40;99.90;;;;;;5056945;28;20462;-70
2022/03/27 02:38:16;;;;;;;10.60;5.03;;;6.40;99.90;;;;;;5050959;28;20550;-69
2022/03/27 02:40:44;;;;;;;12.48;4.68;;;6.30;99.90;;;;;;5065576;28;20040;-69
2022/03/27 02:43:10;;;;;;;9.98;4.45;;;6.30;99.90;;;;;;5029066;28;20044;-69
2022/03/27 02:45:36;;;;;;;10.88;4.63;;;6.30;99.90;;;;;;5071960;28;20055;-69
2022/03/27 02:48:02;;;;;;;10.40;4.63;;;6.30;99.90;;;;;;5054082;28;20041;-70
2022/03/27 02:50:32;;;;;;;13.05;4.88;;;6.40;99.90;;;;;;5054124;28;20040;-70
2022/03/27 02:53:00;;;;;;;12.55;4.93;;;6.30;99.90;;;;;;5054018;28;20040;-70
2022/03/27 02:55:26;;;;;;;9.80;4.90;;;6.20;99.90;;;;;;5058085;28;20050;-69
2022/03/27 02:57:53;;;;;;;15.25;5.32;;;6.30;99.90;;;;;;5038398;28;20040;-69
2022/03/27 03:00:20;;;;;;;13.18;5.10;;;6.20;99.90;;;;;;5059079;28;20165;-70
2022/03/27 03:02:46;;;;;;;14.10;5.10;;;6.20;99.90;;;;;;5056996;28;20046;-70
2022/03/27 03:05:12;;;;;;;9.85;4.75;;;6.20;99.90;;;;;;5039769;28;20036;-70
2022/03/27 03:07:42;;;;;;;9.32;4.90;;;6.10;99.90;;;;;;5037430;28;20037;-69
2022/03/27 03:10:09;;;;;;;9.65;4.88;;;6.10;99.90;;;;;;5055996;28;20047;-69
2022/03/27 03:12:35;;;;;;;9.30;4.70;;;6.10;99.90;;;;;;5044663;28;20041;-69
2022/03/27 03:15:03;;;;;;;10.27;4.75;;;6.10;99.90;;;;;;5070364;28;20431;-68
2022/03/27 03:17:29;;;;;;;13.82;4.88;;;6.00;99.90;;;;;;5036513;28;20049;-69
2022/03/27 03:19:54;;;;;;;8.57;4.30;;;5.90;99.90;;;;;;5075516;28;20048;-70
2022/03/27 03:22:21;;;;;;;9.18;3.97;;;5.90;99.90;;;;;;5040731;28;20377;-69
2022/03/27 03:24:47;;;;;;;8.30;3.97;;;5.90;99.90;;;;;;5031606;28;20486;-69
2022/03/27 03:27:13;;;;;;;7.65;4.03;;;5.90;99.90;;;;;;5039274;28;20128;-69
2022/03/27 03:29:39;;;;;;;9.90;4.15;;;5.90;99.90;;;;;;5000228;28;20052;-70
2022/03/27 03:32:05;;;;;;;10.35;4.45;;;5.90;99.90;;;;;;5033401;28;20045;-70
2022/03/27 03:34:31;;;;;;;15.60;4.40;;;5.90;99.90;;;;;;5050225;28;20076;-70
2022/03/27 03:36:57;;;;;;;9.40;4.05;;;5.90;99.90;;;;;;5032747;28;20045;-70
2022/03/27 03:39:23;;;;;;;10.25;3.95;;;5.90;99.90;;;;;;4999502;28;20120;-70
2022/03/27 03:41:49;;;;;;;11.15;4.15;;;5.90;99.90;;;;;;5000857;28;20124;-71
2022/03/27 03:44:15;;;;;;;12.32;4.10;;;6.00;99.90;;;;;;5017175;28;20052;-71
2022/03/27 03:46:41;;;;;;;10.52;4.05;;;5.90;99.90;;;;;;5017035;28;20037;-68
2022/03/27 03:49:07;;;;;;;7.88;3.80;;;5.90;99.90;;;;;;5031193;28;20128;-68
2022/03/27 03:51:34;;;;;;;10.50;4.25;;;5.90;99.90;;;;;;5049880;28;20123;-68
2022/03/27 03:54:06;;;;;;;10.50;3.67;;;5.90;99.90;;;;;;5016934;28;20082;-69
2022/03/27 03:56:33;;;;;;;9.00;3.85;;;5.90;99.90;;;;;;5016674;28;20037;-69
2022/03/27 03:58:59;;;;;;;13.30;4.15;;;5.90;99.90;;;;;;5014280;28;20048;-69
2022/03/27 04:01:25;;;;;;;10.88;4.03;;;5.90;99.90;;;;;;5047071;28;20416;-69
2022/03/27 04:03:51;;;;;;;8.45;3.70;;;5.80;99.90;;;;;;5024298;28;20160;-69
2022/03/27 04:06:17;;;;;;;12.38;4.15;;;5.80;99.90;;;;;;5017026;28;20051;-69
2022/03/27 04:08:43;;;;;;;12.52;4.05;;;5.80;99.90;;;;;;5032720;28;20049;-68
2022/03/27 04:11:14;;;;;;;11.35;4.38;;;5.80;99.90;;;;;;5033725;28;20157;-69
2022/03/27 04:13:40;;;;;;;12.60;3.75;;;5.80;99.90;;;;;;5032871;28;20056;-69
2022/03/27 04:16:06;;;;;;;13.70;4.80;;;5.80;99.90;;;;;;5017297;28;20045;-69
2022/03/27 04:18:32;;;;;;;18.17;4.55;;;5.80;99.90;;;;;;5033682;28;20428;-69
2022/03/27 04:20:58;;;;;;;13.55;4.15;;;5.80;99.90;;;;;;5046294;28;20098;-70
2022/03/27 04:23:24;;;;;;;11.48;4.07;;;5.80;99.90;;;;;;5069974;28;20400;-69
2022/03/27 04:25:50;;;;;;;12.50;3.97;;;5.80;99.90;;;;;;5051204;28;20048;-68
2022/03/27 04:28:16;;;;;;;13.20;4.13;;;5.80;99.90;;;;;;5022010;28;20073;-69
2022/03/27 04:30:42;;;;;;;13.73;3.90;;;5.80;99.90;;;;;;5057117;28;20075;-68
2022/03/27 04:33:08;;;;;;;16.58;4.90;;;5.70;99.90;;;;;;5056379;28;20098;-69
2022/03/27 04:35:34;;;;;;;15.18;4.13;;;5.70;99.90;;;;;;5053204;28;20049;-69
2022/03/27 04:38:00;;;;;;;11.48;3.92;;;5.70;99.90;;;;;;5056474;28;20052;-69
2022/03/27 04:40:27;;;;;;;11.48;4.05;;;5.70;99.90;;;;;;5055998;28;20127;-68
2022/03/27 04:42:53;;;;;;;8.18;3.65;;;5.70;99.90;;;;;;5055345;28;20037;-69
2022/03/27 04:45:19;;;;;;;20.63;4.57;;;5.70;99.90;;;;;;5040008;28;20047;-70
2022/03/27 04:47:44;;;;;;;12.90;4.20;;;5.70;99.90;;;;;;5056952;28;20048;-70
2022/03/27 04:50:10;;;;;;;14.60;4.68;;;5.70;99.90;;;;;;5041023;28;20040;-69
2022/03/27 04:52:37;;;;;;;15.63;4.60;;;5.70;99.90;;;;;;5057188;28;20062;-70
2022/03/27 04:55:05;;;;;;;12.80;4.15;;;5.70;99.90;;;;;;5050684;28;20040;-69
2022/03/27 04:57:37;;;;;;;16.83;4.45;;;5.50;99.90;;;;;;5072713;28;20501;-70
2022/03/27 05:00:04;;;;;;;10.95;4.25;;;5.70;99.90;;;;;;5050596;28;20044;-69
2022/03/27 05:02:30;;;;;;;17.58;4.15;;;5.70;99.90;;;;;;5039114;28;20048;-69
2022/03/27 05:04:56;;;;;;;17.58;4.82;;;5.70;99.90;;;;;;5056361;28;20504;-69
2022/03/27 05:07:22;;;;;;;18.88;4.25;;;4.90;99.90;;;;;;5072894;28;20511;-69
2022/03/27 05:09:48;;;;;;;16.25;4.45;;;5.70;99.90;;;;;;5055647;28;20493;-70
2022/03/27 05:12:14;;;;;;;12.85;4.50;;;5.70;99.90;;;;;;5056111;28;20044;-69
2022/03/27 05:14:40;;;;;;;14.63;4.65;;;5.70;99.90;;;;;;5032169;28;20492;-69
2022/03/27 05:17:06;;;;;;;17.60;4.53;;;5.70;99.90;;;;;;5038795;28;20498;-69
2022/03/27 05:19:32;;;;;;;19.00;4.63;;;5.80;99.90;;;;;;5038247;28;20052;-69
2022/03/27 05:21:58;;;;;;;18.45;4.60;;;5.70;99.90;;;;;;5054846;28;20131;-69
2022/03/27 05:24:25;;;;;;;15.48;4.75;;;5.80;99.90;;;;;;5038833;28;20544;-70
2022/03/27 05:26:51;;;;;;;18.30;4.43;;;6.10;99.90;;;;;;5055115;28;20123;-69
2022/03/27 05:29:16;;;;;;;14.73;4.50;;;5.80;99.90;;;;;;5052139;28;20131;-69
2022/03/27 05:31:42;;;;;;;18.10;4.95;;;5.80;99.90;;;;;;5035195;28;20044;-69
2022/03/27 05:34:08;;;;;;;15.70;4.10;;;5.70;99.90;;;;;;5068899;28;20052;-69
2022/03/27 05:36:34;;;;;;;13.65;4.75;;;5.70;99.90;;;;;;5056084;28;20377;-70
2022/03/27 05:39:00;;;;;;;20.88;5.20;;;5.80;99.90;;;;;;5072377;28;20389;-69
2022/03/27 05:41:26;;;;;;;19.27;5.03;;;5.80;99.90;;;;;;5054929;28;20857;-70
2022/03/27 05:43:52;;;;;;;15.32;5.05;;;5.80;99.90;;;;;;5038956;28;21088;-69
2022/03/27 05:46:17;;;;;;;16.38;4.78;;;5.80;99.90;;;;;;5055698;28;20538;-69
2022/03/27 05:48:44;;;;;;;17.15;4.40;;;5.70;99.90;;;;;;5055680;28;20473;-69
2022/03/27 05:51:09;;;;;;;15.48;4.03;;;5.70;99.90;;;;;;5054333;28;20052;-69
2022/03/27 05:53:38;;;;;;;14.40;4.45;;;5.70;99.90;;;;;;5054747;28;20056;-69
2022/03/27 05:56:05;;;;;;;15.68;4.40;;;5.80;99.90;;;;;;5055808;28;20078;-69
2022/03/27 05:58:31;;;;;;;17.35;4.53;;;5.50;99.90;;;;;;5055452;28;20064;-70
2022/03/27 06:00:57;;;;;;;19.77;4.70;;;5.50;99.90;;;;;;5037666;28;20044;-69
2022/03/27 06:03:23;;;;;;;25.20;4.88;;;5.50;99.90;;;;;;5007152;28;20473;-69
2022/03/27 06:05:49;;;;;;;18.65;4.28;;;5.70;99.90;;;;;;5022535;28;20045;-69
2022/03/27 06:08:15;;;;;;;18.35;5.00;;;5.60;99.90;;;;;;5038169;28;20041;-70
2022/03/27 06:10:41;;;;;;;18.13;4.82;;;5.60;99.90;;;;;;5072038;28;20144;-69
2022/03/27 06:13:10;;;;;;;17.38;5.35;;;5.60;99.90;;;;;;5043312;28;20044;-69
2022/03/27 06:15:36;;;;;;;15.70;4.80;;;5.70;99.90;;;;;;5071916;28;20052;-69
2022/03/27 06:18:02;;;;;;;19.60;4.93;;;5.70;99.90;;;;;;5071619;28;20089;-69
2022/03/27 06:20:30;;;;;;;18.63;5.20;;;5.70;99.90;;;;;;5018713;28;20053;-70
2022/03/27 06:22:57;;;;;;;17.15;5.20;;;5.80;99.90;;;;;;5029690;28;20044;-69
2022/03/27 06:25:25;;;;;;;27.42;5.10;;;5.90;99.90;;;;;;5035237;28;20095;-69
2022/03/27 06:27:52;;;;;;;23.48;5.85;;;5.90;99.90;;;;;;5028347;28;20048;-70
2022/03/27 06:30:20;;;;;;;27.30;6.07;;;6.00;99.90;;;;;;5035179;28;20044;-69
2022/03/27 06:32:47;;;;;;;25.70;5.75;;;6.10;99.90;;;;;;5033594;28;20374;-69
2022/03/27 06:35:16;;;;;;;31.92;6.05;;;6.20;99.90;;;;;;5002042;28;20051;-70
2022/03/27 06:37:42;;;;;;;29.45;6.35;;;6.30;99.90;;;;;;5033870;28;20481;-69
2022/03/27 06:40:10;;;;;;;27.67;5.50;;;6.50;99.90;;;;;;5034090;28;20041;-70
2022/03/27 06:42:36;;;;;;;24.45;6.00;;;6.60;99.90;;;;;;5033676;28;20053;-69
2022/03/27 06:45:03;;;;;;;27.27;5.50;;;6.60;99.90;;;;;;5034678;28;20405;-69
2022/03/27 06:47:29;;;;;;;30.73;5.70;;;6.70;99.90;;;;;;5057127;28;20036;-70
2022/03/27 06:49:57;;;;;;;29.40;5.57;;;6.80;99.90;;;;;;5054459;28;20048;-70
2022/03/27 06:52:25;;;;;;;26.60;5.57;;;6.90;99.90;;;;;;5029802;28;20080;-69
2022/03/27 06:54:52;;;;;;;31.90;6.20;;;7.10;99.90;;;;;;5018261;28;20056;-71
2022/03/27 06:57:18;;;;;;;25.08;5.90;;;7.20;99.90;;;;;;5034068;28;20062;-69
2022/03/27 07:05:15;;;;;;;27.73;5.50;;;7.40;99.90;;;;;;5034348;28;20485;-71
2022/03/27 07:07:44;;;;;;;27.95;5.35;;;7.50;99.90;;;;;;5033851;28;20040;-68
2022/03/27 07:10:11;;;;;;;27.48;6.20;;;7.60;99.90;;;;;;5051085;28;20044;-72
2022/03/27 07:12:38;;;;;;;37.45;6.45;;;7.70;99.90;;;;;;4999989;28;20473;-71
2022/03/27 07:15:06;;;;;;;35.75;5.80;;;7.80;99.90;;;;;;5005889;28;20520;-69
2022/03/27 07:17:32;;;;;;;32.88;6.65;;;8.00;99.90;;;;;;5050778;28;20045;-69
2022/03/27 07:19:58;;;;;;;38.55;6.38;;;8.00;99.90;;;;;;5033929;28;20106;-70
2022/03/27 07:22:25;;;;;;;38.78;6.72;;;8.10;99.90;;;;;;5051770;28;20404;-69
2022/03/27 07:24:51;;;;;;;32.33;6.60;;;8.20;99.90;;;;;;5052363;28;20054;-72
2022/03/27 07:27:17;;;;;;;34.33;6.18;;;8.30;99.90;;;;;;5053998;28;20044;-69
2022/03/27 07:29:43;;;;;;;40.83;7.30;;;8.40;99.90;;;;;;5037666;28;20167;-69
2022/03/27 07:32:11;;;;;;;37.92;6.57;;;8.40;99.90;;;;;;5070042;28;20044;-69
2022/03/27 07:34:37;;;;;;;37.88;6.47;;;8.50;99.90;;;;;;5071130;28;20063;-69
2022/03/27 07:37:03;;;;;;;37.50;6.22;;;8.60;99.90;;;;;;5053292;28;20040;-69
2022/03/27 07:39:30;;;;;;;36.30;6.18;;;8.70;99.90;;;;;;5053979;28;20044;-70
2022/03/27 07:41:56;;;;;;;32.13;5.60;;;8.70;99.90;;;;;;5035715;28;20546;-69
2022/03/27 07:44:22;;;;;;;37.90;6.10;;;8.70;99.90;;;;;;5032260;28;20214;-69
2022/03/27 07:46:49;;;;;;;38.30;6.63;;;8.90;99.90;;;;;;5046722;28;20082;-70
2022/03/27 07:49:16;;;;;;;42.40;7.10;;;9.00;99.90;;;;;;5053793;28;20060;-69
2022/03/27 07:51:43;;;;;;;38.83;6.60;;;9.10;99.90;;;;;;5035394;28;20093;-69
2022/03/27 07:54:09;;;;;;;34.78;7.18;;;9.20;99.90;;;;;;5041165;28;20044;-69
2022/03/27 07:56:36;;;;;;;41.10;6.97;;;9.40;99.90;;;;;;5040610;28;20388;-69
2022/03/27 07:59:02;;;;;;;42.58;7.00;;;9.50;99.90;;;;;;5055201;28;20048;-69
2022/03/27 08:01:28;;;;;;;40.10;7.18;;;9.60;99.90;;;;;;5057091;28;20480;-68
2022/03/27 08:03:56;;;;;;;35.47;7.13;;;9.70;99.90;;;;;;5058227;28;20040;-69
2022/03/27 08:06:25;;;;;;;40.17;6.65;;;9.70;99.90;;;;;;5070464;28;20051;-69
2022/03/27 08:08:51;;;;;;;36.53;7.53;;;9.70;99.90;;;;;;5057181;28;20041;-70
2022/03/27 08:11:17;;;;;;;47.45;7.80;;;9.90;99.90;;;;;;5035764;28;20476;-69
2022/03/27 08:13:43;;;;;;;35.97;6.72;;;9.90;99.90;;;;;;5073576;28;20469;-69
2022/03/27 08:16:09;;;;;;;36.10;6.35;;;10.00;99.90;;;;;;5072434;28;20041;-69
2022/03/27 08:18:36;;;;;;;34.45;6.18;;;10.10;99.90;;;;;;5057611;28;20385;-69
2022/03/27 08:21:01;;;;;;;41.00;6.93;;;10.10;99.90;;;;;;5072439;28;20045;-69
2022/03/27 08:23:27;;;;;;;37.35;6.78;;;10.00;99.90;;;;;;5073420;28;20055;-69
2022/03/27 08:28:39;;;;;;;39.33;6.47;;;10.10;99.90;;;;;;5086709;28;20040;-69
2022/03/27 08:31:05;;;;;;;33.53;6.60;;;10.10;99.90;;;;;;5062143;28;20048;-70
2022/03/27 08:33:30;;;;;;;35.65;6.85;;;10.20;99.90;;;;;;5030041;28;20039;-69
2022/03/27 08:35:57;;;;;;;42.67;6.93;;;10.30;99.90;;;;;;5040456;28;20045;-70
2022/03/27 08:38:23;;;;;;;34.92;6.45;;;10.30;99.90;;;;;;5046798;28;20048;-69
2022/03/27 08:40:53;;;;;;;36.17;6.63;;;10.20;99.90;;;;;;5049317;28;20128;-70
2022/03/27 08:43:19;;;;;;;40.22;6.78;;;10.30;99.90;;;;;;5048724;28;20045;-69
2022/03/27 08:45:45;;;;;;;35.47;6.93;;;10.50;99.90;;;;;;5055071;28;20135;-72
2022/03/27 08:48:12;;;;;;;35.40;5.75;;;10.60;99.90;;;;;;5085475;28;20457;-72
2022/03/27 08:50:39;;;;;;;30.30;6.18;;;10.60;99.90;;;;;;5027649;28;20047;-71
2022/03/27 08:53:07;;;;;;;43.83;6.93;;;10.50;99.90;;;;;;5039291;28;20146;-72
2022/03/27 08:56:00;;;;;;;28.98;6.32;;;10.60;99.90;;;;;;5069180;28;20043;-74
2022/03/27 08:58:38;;;;;;;39.72;7.18;;;10.80;99.90;;;;;;5039365;28;20048;-78
2022/03/27 09:01:06;;;;;;;33.63;6.30;;;10.80;99.90;;;;;;5053006;28;20354;-72
2022/03/27 09:03:32;;;;;;;32.25;6.35;;;11.00;99.90;;;;;;5052739;28;20476;-73
2022/03/27 09:06:01;;;;;;;37.55;6.90;;;11.00;99.90;;;;;;5047099;28;20380;-74
2022/03/27 09:08:29;;;;;;;41.45;6.72;;;11.10;99.90;;;;;;5055182;28;20049;-73
2022/03/27 09:10:56;;;;;;;28.23;6.35;;;11.30;99.90;;;;;;5072703;28;20076;-73
2022/03/27 09:13:23;;;;;;;30.25;6.28;;;11.40;99.90;;;;;;5054618;28;20376;-73
2022/03/27 09:16:04;;;;;;;29.02;6.93;;;11.50;99.90;;;;;;5035638;28;20032;-73
2022/03/27 09:18:47;;;;;;;29.33;6.85;;;11.60;99.90;;;;;;5054952;28;20074;-73
2022/03/27 09:21:14;;;;;;;32.30;7.90;;;11.70;99.90;;;;;;5044339;28;20057;-73
2022/03/27 09:23:40;;;;;;;33.08;6.82;;;11.60;99.90;;;;;;5053067;28;20174;-72
2022/03/27 09:26:10;;;;;;;33.10;7.78;;;11.70;99.90;;;;;;5052803;28;20056;-73
2022/03/27 09:28:39;;;;;;;27.13;6.50;;;11.90;99.90;;;;;;5038542;28;20052;-73
2022/03/27 09:31:19;;;;;;;35.00;6.40;;;11.90;99.90;;;;;;5038097;28;20063;-73
2022/03/27 09:33:55;;;;;;;35.22;6.65;;;12.10;99.90;;;;;;5071104;28;20473;-73
2022/03/27 09:36:29;;;;;;;35.03;6.72;;;12.30;99.90;;;;;;5038834;28;20512;-73
2022/03/27 09:39:00;;;;;;;27.60;5.60;;;12.30;99.90;;;;;;5053068;28;20044;-73
2022/03/27 09:41:47;;;;;;;27.05;5.80;;;12.50;99.90;;;;;;5053616;28;20119;-73
2022/03/27 09:44:19;;;;;;;29.98;6.47;;;12.60;99.90;;;;;;5049438;28;20381;-73
2022/03/27 09:46:55;;;;;;;31.80;6.13;;;12.70;99.90;;;;;;5054720;28;20048;-73
2022/03/27 09:49:30;;;;;;;25.42;6.10;;;12.80;99.90;;;;;;5031547;28;20043;-73
2022/03/27 09:51:59;;;;;;;27.77;6.45;;;12.90;99.90;;;;;;5052964;28;20072;-73
2022/03/27 09:54:28;;;;;;;35.78;6.82;;;13.00;99.90;;;;;;5068228;28;20032;-73
2022/03/27 09:56:55;;;;;;;29.58;6.00;;;13.10;99.90;;;;;;5048964;28;20048;-73
2022/03/27 09:59:33;;;;;;;23.85;5.80;;;13.10;99.90;;;;;;5036749;28;20044;-73
2022/03/27 10:02:19;;;;;;;28.45;5.97;;;13.20;99.90;;;;;;5021358;28;20036;-73
2022/03/27 10:04:58;;;;;;;27.20;5.85;;;13.30;99.90;;;;;;5055461;28;20045;-73
2022/03/27 10:07:26;;;;;;;31.15;6.38;;;13.40;99.90;;;;;;5053155;28;20040;-72
2022/03/27 10:09:55;;;;;;;31.25;6.40;;;13.40;99.90;;;;;;5020143;28;20051;-74
2022/03/27 10:12:27;;;;;;;29.23;5.60;;;13.60;99.90;;;;;;5035523;28;20040;-73
2022/03/27 10:15:03;;;;;;;25.40;6.18;;;13.80;99.90;;;;;;5031233;28;20040;-73
2022/03/27 10:17:33;;;;;;;31.38;6.25;;;13.80;99.90;;;;;;5072064;28;20087;-73
2022/03/27 10:20:08;;;;;;;25.35;6.03;;;14.00;99.90;;;;;;5053769;28;20089;-72
2022/03/27 10:22:39;;;;;;;25.60;6.15;;;14.20;99.90;;;;;;5053324;28;20058;-76
2022/03/27 10:25:08;;;;;;;26.02;5.93;;;14.10;99.90;;;;;;5049937;28;20473;-74
2022/03/27 10:27:36;;;;;;;33.42;5.93;;;14.20;99.90;;;;;;5035107;28;20037;-75
2022/03/27 10:30:02;;;;;;;23.50;5.82;;;14.40;99.90;;;;;;5051104;28;20485;-77
2022/03/27 10:32:29;;;;;;;29.40;6.10;;;14.60;99.90;;;;;;5070747;28;20085;-73
2022/03/27 10:35:38;;;;;;;27.85;5.95;;;14.70;99.90;;;;;;5089222;27;20390;-73
2022/03/27 10:38:17;;;;;;;28.27;5.95;;;14.60;99.90;;;;;;5077536;28;20056;-74
2022/03/27 10:41:13;;;;;;;25.30;5.70;;;14.60;99.90;;;;;;5066109;28;20049;-71
2022/03/27 10:44:12;;;;;;;27.88;4.95;;;14.60;99.90;;;;;;5064037;28;20068;-71
2022/03/27 10:46:38;;;;;;;29.33;6.45;;;14.60;98.30;;;;;;5068075;28;20132;-74
2022/03/27 10:49:15;;;;;;;26.15;6.10;;;15.00;99.90;;;;;;5067415;28;20088;-73
2022/03/27 10:51:46;;;;;;;26.83;5.25;;;15.10;99.90;;;;;;5067377;28;20045;-73
2022/03/27 10:54:16;;;;;;;24.70;5.32;;;15.30;99.90;;;;;;5067670;28;20084;-73
2022/03/27 10:56:51;;;;;;;22.85;5.80;;;15.20;99.90;;;;;;5067796;28;20049;-75
2022/03/27 10:59:20;;;;;;;24.75;5.03;;;15.50;99.90;;;;;;5066967;28;20045;-74
2022/03/27 11:01:56;;;;;;;27.38;5.38;;;15.60;99.90;;;;;;5083498;28;20432;-74
2022/03/27 11:04:36;;;;;;;28.33;5.85;;;15.70;99.90;;;;;;5067089;28;20409;-73
2022/03/27 11:07:22;;;;;;;24.38;5.75;;;15.70;99.90;;;;;;5050803;28;20055;-73
2022/03/27 11:09:48;;;;;;;24.58;5.93;;;15.90;99.90;;;;;;5066529;28;20056;-73
2022/03/27 11:12:24;;;;;;;30.55;6.30;;;15.90;99.90;;;;;;5083338;28;20033;-74
2022/03/27 11:14:53;;;;;;;24.80;5.72;;;15.90;97.70;;;;;;5067077;28;20052;-75
2022/03/27 11:17:34;;;;;;;26.35;5.70;;;16.00;99.90;;;;;;5050689;28;20044;-74
2022/03/27 11:20:04;;;;;;;21.00;5.32;;;16.40;99.90;;;;;;5066629;28;20453;-74
2022/03/27 11:22:51;;;;;;;27.70;6.10;;;16.30;99.90;;;;;;5066782;28;20047;-76
2022/03/27 11:25:38;;;;;;;17.83;5.13;;;16.50;94.40;;;;;;5050814;28;20293;-75
2022/03/27 11:28:07;;;;;;;21.85;5.72;;;16.30;99.90;;;;;;5066376;28;20119;-76
2022/03/27 11:30:36;;;;;;;26.88;6.65;;;16.30;99.90;;;;;;5050297;28;20049;-74
2022/03/27 11:33:22;;;;;;;24.80;6.10;;;16.20;99.40;;;;;;5048577;28;20040;-77
2022/03/27 11:36:07;;;;;;;27.35;6.20;;;16.30;90.00;;;;;;5034914;28;20052;-74
2022/03/27 11:38:35;;;;;;;24.27;5.97;;;16.40;90.90;;;;;;5049836;28;20041;-74
2022/03/27 11:41:45;;;;;;;18.98;5.60;;;16.60;99.90;;;;;;5066454;28;20049;-77
2022/03/27 11:44:22;;;;;;;26.50;5.25;;;16.70;91.60;;;;;;5047196;28;20124;-75
2022/03/27 11:46:54;;;;;;;23.65;5.72;;;16.60;84.40;;;;;;5052634;28;20151;-77
2022/03/27 11:49:35;;;;;;;24.35;5.93;;;16.70;90.90;;;;;;5036246;28;20044;-75
2022/03/27 11:52:14;;;;;;;23.43;5.87;;;16.60;92.50;;;;;;5033161;28;20053;-74
2022/03/27 11:54:40;;;;;;;24.92;6.03;;;16.70;89.40;;;;;;5036496;28;20126;-76
2022/03/27 11:57:07;;;;;;;19.98;5.57;;;17.00;92.00;;;;;;5052737;28;20080;-74
2022/03/27 11:59:47;;;;;;;19.60;5.15;;;17.10;90.00;;;;;;5050074;28;20124;-74
2022/03/27 12:02:15;;;;;;;22.02;5.18;;;17.20;84.90;;;;;;5053019;28;20048;-74
2022/03/27 12:04:52;;;;;;;24.30;5.00;;;17.40;90.90;;;;;;5049153;28;20049;-74
2022/03/27 12:07:18;;;;;;;20.15;5.10;;;17.50;81.70;;;;;;5028122;28;20393;-73
2022/03/27 12:09:54;;;;;;;19.58;4.72;;;17.90;87.00;;;;;;5034818;28;20063;-75
2022/03/27 12:12:23;;;;;;;26.48;5.32;;;17.90;84.90;;;;;;5036264;28;20098;-75
2022/03/27 12:14:55;;;;;;;24.17;4.50;;;18.00;75.00;;;;;;5035451;28;20461;-74
2022/03/27 12:17:25;;;;;;;20.85;4.65;;;18.40;80.40;;;;;;5052584;28;20128;-74
2022/03/27 12:20:02;;;;;;;19.10;4.50;;;18.50;75.80;;;;;;5066256;28;20583;-72
2022/03/27 12:22:41;;;;;;;19.88;4.60;;;18.80;75.70;;;;;;5052599;28;20099;-73
2022/03/27 12:25:15;;;;;;;22.20;5.50;;;18.90;73.90;;;;;;5029175;28;20103;-78
2022/03/27 12:30:35;;;;;;;22.35;5.03;;;19.80;78.20;;;;;;5065522;28;20501;-80
2022/03/27 12:33:03;;;;;;;21.63;5.78;;;20.30;73.00;;;;;;5051782;28;20057;-76
2022/03/27 12:35:33;;;;;;;17.27;4.90;;;20.40;75.90;;;;;;5050724;28;20060;-75
2022/03/27 12:37:59;;;;;;;23.17;4.73;;;20.60;72.70;;;;;;5034949;28;20049;-75
2022/03/27 12:40:26;;;;;;;20.55;5.13;;;20.80;73.90;;;;;;5048748;28;20049;-75
2022/03/27 12:42:54;;;;;;;24.02;5.07;;;21.00;73.00;;;;;;5053234;28;20056;-74
2022/03/27 12:45:30;;;;;;;19.27;4.97;;;21.10;71.50;;;;;;5051978;28;20501;-73
2022/03/27 12:48:00;;;;;;;18.75;4.55;;;21.30;63.20;;;;;;5041487;28;20505;-75
2022/03/27 12:50:37;;;;;;;16.95;4.50;;;21.50;68.40;;;;;;5051304;28;20396;-74
2022/03/27 12:53:12;;;;;;;17.48;4.38;;;21.80;63.60;;;;;;5023170;28;20076;-75
2022/03/27 12:55:50;;;;;;;22.15;4.95;;;22.00;64.30;;;;;;5051076;28;20036;-74
2022/03/27 12:58:18;;;;;;;15.10;4.18;;;22.20;60.60;;;;;;5082454;28;20111;-75
2022/03/27 13:00:46;;;;;;;18.75;4.43;;;22.40;63.60;;;;;;5066627;28;20516;-74
2022/03/27 13:03:20;;;;;;;17.52;4.53;;;22.50;61.30;;;;;;5051505;28;20079;-74
2022/03/27 13:05:56;;;;;;;19.52;4.80;;;22.80;56.70;;;;;;5050541;28;20047;-74